Search for airport 
image banner adimage banner adimage banner ad
image banner ad

3CL3 - World Trade Center

Located in Long Beach, United States

ICAO - 3CL3, IATA -

Data provided by Airmate  

General information

Coordinates: N33°46'4" W118°11'59"
Elevation is 398 feet MSL.
Magnetic variation is 14° East
View others Airports in California

Operational data

Special qualification required
Current time UTC:
Current local time:
METAR: KLGB 210953Z AUTO 00000KT 9SM OVC012 17/15 A2992 RMK AO2 SLP132 T01720150 $
TAF: KLGB 210922Z 2109/2206 VRB03KT P6SM OVC012 FM211800 19007KT P6SM SKC FM212230 29009KT P6SM SKC
View NOTAMs / SUP AIP / TFR affecting this airport [VIEW]
Communications frequencies: [VIEW]

Runways:

Airport contact information

Address: Long Beach United States

Satellite view of 3CL3